Airport ID:KRTS
Update Time (UTC):26/03/2019 10:23
Wind Speed (Knots):27
Wind Direction (Magnetic):210
Temperature (°C):7
Dew Point (°C):-2
Humidity (%):49
Altimeter (inHg):29.98
Density Altitude (Feet):
Visibility (Miles):10+
Clouds (Hundreds of feet):SCT055 BKN060 OVC075
Present Weather:
METAR:METAR KRTS 261020Z AUTO 22016G28KT 190V250 10SM BKN060 OVC075 06/M02 A2998 RMK AO2

The data displayed is for advisory purposes only and is not to be used for flight planning or operations.

This page is not automatically refreshed. Reload the page to see current data.